PROFILE

 METAR AND TAF INFORMATION
ADDS - METARS form results

(0519 UTC 21 July 2018)

 
CYHM 210500Z 16015G21KT 15SM SCT130 BKN240 24/17 A2987 RMK AC4CI1 SLP113 DENSITY ALT 2100FT

 AIRPORT MAP

 RUNWAY INFORMATION
Runway 06 Runway length 6000 ft Runway width 150 ft
Runway elevation 771 ft Runway displaced threshold 0 ft Runway heading 49
Runway 24 Runway length 6000 ft Runway width 150 ft
Runway elevation 755 ft Runway displaced threshold 0 ft Runway heading 229
Runway 12 Runway length 10000 ft Runway width 200 ft
Runway elevation 776 ft Runway displaced threshold 1600 ft Runway heading 108
Runway 30 Runway length 10000 ft Runway width 200 ft
Runway elevation 767 ft Runway displaced threshold 400 ft Runway heading 288

 AIRPORT FREQUENCIES
Type A/D Name TORONTO TR Frequency 119.7 MHZ
Type ATIS Name ATIS Frequency 128.1 MHZ
Type GND Name GND Frequency 121.6 MHZ
Type TWR Name TWR Frequency 125 MHZ

 AIRPORT NEAR NAVIGATION AIDS
Type NDB Name Hamilton Frequency 221 KHZ
Type NDB Name Ancaster Frequency 397 KHZ
Type NDB Name Binbrook Frequency 266 KHZ